sensor_id;sensor_type;location;lat;lon;timestamp;pressure;altitude;pressure_sealevel;temperature;humidity
26112;BME280;13829;48.990;8.346;2024-03-25T00:00:30;99828.59;;;7.49;100.00
26112;BME280;13829;48.990;8.346;2024-03-25T00:02:56;99825.00;;;7.38;100.00
26112;BME280;13829;48.990;8.346;2024-03-25T00:05:25;99828.59;;;7.47;100.00
26112;BME280;13829;48.990;8.346;2024-03-25T00:07:52;99829.44;;;7.48;100.00
26112;BME280;13829;48.990;8.346;2024-03-25T00:10:19;99829.44;;;7.45;100.00
26112;BME280;13829;48.990;8.346;2024-03-25T00:12:46;99825.91;;;7.43;100.00
26112;BME280;13829;48.990;8.346;2024-03-25T00:15:18;99827.56;;;7.28;100.00
26112;BME280;13829;48.990;8.346;2024-03-25T00:17:45;99832.06;;;7.46;100.00
26112;BME280;13829;48.990;8.346;2024-03-25T00:20:12;99825.03;;;7.42;100.00
26112;BME280;13829;48.990;8.346;2024-03-25T00:22:40;99821.59;;;7.51;100.00
26112;BME280;13829;48.990;8.346;2024-03-25T00:25:08;99820.81;;;7.58;100.00
26112;BME280;13829;48.990;8.346;2024-03-25T00:27:34;99823.31;;;7.46;100.00
26112;BME280;13829;48.990;8.346;2024-03-25T00:30:01;99810.22;;;7.46;100.00
26112;BME280;13829;48.990;8.346;2024-03-25T00:32:27;99824.16;;;7.40;100.00
26112;BME280;13829;48.990;8.346;2024-03-25T00:34:54;99817.28;;;7.50;100.00
26112;BME280;13829;48.990;8.346;2024-03-25T00:37:20;99817.28;;;7.56;100.00
26112;BME280;13829;48.990;8.346;2024-03-25T00:39:48;99820.69;;;7.43;100.00
26112;BME280;13829;48.990;8.346;2024-03-25T00:42:15;99820.63;;;7.37;100.00
26112;BME280;13829;48.990;8.346;2024-03-25T00:44:41;99815.44;;;7.43;100.00
26112;BME280;13829;48.990;8.346;2024-03-25T00:47:08;99816.25;;;7.34;100.00
26112;BME280;13829;48.990;8.346;2024-03-25T00:49:34;99812.78;;;7.38;100.00
26112;BME280;13829;48.990;8.346;2024-03-25T00:52:02;99817.22;;;7.47;100.00
26112;BME280;13829;48.990;8.346;2024-03-25T00:54:28;99825.97;;;7.52;100.00
26112;BME280;13829;48.990;8.346;2024-03-25T00:56:56;99824.22;;;7.45;100.00
26112;BME280;13829;48.990;8.346;2024-03-25T00:59:22;99820.69;;;7.46;100.00
26112;BME280;13829;48.990;8.346;2024-03-25T01:01:49;99825.19;;;7.59;100.00
26112;BME280;13829;48.990;8.346;2024-03-25T01:04:15;99814.66;;;7.50;100.00
26112;BME280;13829;48.990;8.346;2024-03-25T01:06:42;99814.59;;;7.44;100.00
26112;BME280;13829;48.990;8.346;2024-03-25T01:09:09;99819.75;;;7.36;100.00
26112;BME280;13829;48.990;8.346;2024-03-25T01:11:36;99818.06;;;7.43;100.00
26112;BME280;13829;48.990;8.346;2024-03-25T01:14:03;99813.81;;;7.54;100.00
26112;BME280;13829;48.990;8.346;2024-03-25T01:16:30;99813.75;;;7.51;100.00
26112;BME280;13829;48.990;8.346;2024-03-25T01:18:56;99805.06;;;7.52;100.00
26112;BME280;13829;48.990;8.346;2024-03-25T01:21:24;99812.06;;;7.56;100.00
26112;BME280;13829;48.990;8.346;2024-03-25T01:23:50;99805.91;;;7.49;100.00
26112;BME280;13829;48.990;8.346;2024-03-25T01:26:17;99815.56;;;7.55;100.00
26112;BME280;13829;48.990;8.346;2024-03-25T01:28:43;99806.00;;;7.60;100.00
26112;BME280;13829;48.990;8.346;2024-03-25T01:31:11;99809.41;;;7.51;100.00
26112;BME280;13829;48.990;8.346;2024-03-25T01:33:37;99806.75;;;7.45;100.00
26112;BME280;13829;48.990;8.346;2024-03-25T01:36:05;99800.56;;;7.32;100.00
26112;BME280;13829;48.990;8.346;2024-03-25T01:38:31;99803.97;;;7.27;100.00
26112;BME280;13829;48.990;8.346;2024-03-25T01:41:07;99805.78;;;7.31;100.00
26112;BME280;13829;48.990;8.346;2024-03-25T01:43:33;99804.00;;;7.28;100.00
26112;BME280;13829;48.990;8.346;2024-03-25T01:46:01;99800.56;;;7.34;100.00
26112;BME280;13829;48.990;8.346;2024-03-25T01:48:28;99804.94;;;7.40;100.00
26112;BME280;13829;48.990;8.346;2024-03-25T01:50:56;99806.63;;;7.31;100.00
26112;BME280;13829;48.990;8.346;2024-03-25T01:53:25;99801.34;;;7.22;100.00
26112;BME280;13829;48.990;8.346;2024-03-25T01:55:55;99799.53;;;7.18;100.00
26112;BME280;13829;48.990;8.346;2024-03-25T01:58:23;99804.81;;;7.20;100.00
26112;BME280;13829;48.990;8.346;2024-03-25T02:00:52;99803.22;;;7.39;100.00
26112;BME280;13829;48.990;8.346;2024-03-25T02:03:20;99798.78;;;7.31;100.00
26112;BME280;13829;48.990;8.346;2024-03-25T02:05:52;99800.44;;;7.22;100.00
26112;BME280;13829;48.990;8.346;2024-03-25T02:08:22;99806.63;;;7.28;100.00
26112;BME280;13829;48.990;8.346;2024-03-25T02:10:49;99795.25;;;7.25;100.00
26112;BME280;13829;48.990;8.346;2024-03-25T02:13:16;99795.09;;;7.09;100.00
26112;BME280;13829;48.990;8.346;2024-03-25T02:15:43;99792.66;;;7.29;100.00
26112;BME280;13829;48.990;8.346;2024-03-25T02:18:09;99790.84;;;7.19;100.00
26112;BME280;13829;48.990;8.346;2024-03-25T02:20:36;99788.28;;;7.27;100.00
26112;BME280;13829;48.990;8.346;2024-03-25T02:23:04;99795.22;;;7.22;100.00
26112;BME280;13829;48.990;8.346;2024-03-25T02:25:33;99790.88;;;7.25;100.00
26112;BME280;13829;48.990;8.346;2024-03-25T02:28:01;99797.75;;;7.14;100.00
26112;BME280;13829;48.990;8.346;2024-03-25T02:30:27;99790.84;;;7.19;100.00
26112;BME280;13829;48.990;8.346;2024-03-25T02:32:53;99784.69;;;7.15;100.00
26112;BME280;13829;48.990;8.346;2024-03-25T02:35:22;99783.72;;;7.02;100.00
26112;BME280;13829;48.990;8.346;2024-03-25T02:37:51;99783.84;;;7.16;100.00
26112;BME280;13829;48.990;8.346;2024-03-25T02:40:20;99780.47;;;7.31;100.00
26112;BME280;13829;48.990;8.346;2024-03-25T02:42:46;99776.97;;;7.26;100.00
26112;BME280;13829;48.990;8.346;2024-03-25T02:45:15;99788.25;;;7.22;100.00
26112;BME280;13829;48.990;8.346;2024-03-25T02:47:43;99783.78;;;7.12;100.00
26112;BME280;13829;48.990;8.346;2024-03-25T02:50:10;99782.88;;;7.07;100.00
26112;BME280;13829;48.990;8.346;2024-03-25T02:52:36;99787.34;;;7.17;100.00
26112;BME280;13829;48.990;8.346;2024-03-25T02:55:04;99785.66;;;7.27;100.00
26112;BME280;13829;48.990;8.346;2024-03-25T02:57:30;99778.66;;;7.24;100.00
26112;BME280;13829;48.990;8.346;2024-03-25T02:59:57;99775.25;;;7.28;100.00
26112;BME280;13829;48.990;8.346;2024-03-25T03:02:24;99768.41;;;7.52;100.00
26112;BME280;13829;48.990;8.346;2024-03-25T03:04:51;99776.97;;;7.29;100.00
26112;BME280;13829;48.990;8.346;2024-03-25T03:07:17;99781.38;;;7.37;100.00
26112;BME280;13829;48.990;8.346;2024-03-25T03:09:44;99778.06;;;7.58;100.00
26112;BME280;13829;48.990;8.346;2024-03-25T03:12:10;99782.34;;;7.45;99.90
26112;BME280;13829;48.990;8.346;2024-03-25T03:14:37;99789.25;;;7.35;100.00
26112;BME280;13829;48.990;8.346;2024-03-25T03:17:03;99777.00;;;7.32;100.00
26112;BME280;13829;48.990;8.346;2024-03-25T03:19:33;99783.03;;;7.25;100.00
26112;BME280;13829;48.990;8.346;2024-03-25T03:21:58;99784.72;;;7.17;100.00
26112;BME280;13829;48.990;8.346;2024-03-25T03:24:25;99782.97;;;7.14;100.00
26112;BME280;13829;48.990;8.346;2024-03-25T03:26:51;99781.94;;;7.01;100.00
26112;BME280;13829;48.990;8.346;2024-03-25T03:29:18;99780.38;;;7.21;100.00
26112;BME280;13829;48.990;8.346;2024-03-25T03:31:44;99782.13;;;7.22;100.00
26112;BME280;13829;48.990;8.346;2024-03-25T03:34:11;99783.09;;;7.33;100.00
26112;BME280;13829;48.990;8.346;2024-03-25T03:36:38;99782.22;;;7.31;100.00
26112;BME280;13829;48.990;8.346;2024-03-25T03:39:06;99784.63;;;7.09;100.00
26112;BME280;13829;48.990;8.346;2024-03-25T03:41:34;99790.94;;;7.33;100.00
26112;BME280;13829;48.990;8.346;2024-03-25T03:44:01;99785.72;;;7.31;100.00
26112;BME280;13829;48.990;8.346;2024-03-25T03:46:28;99782.19;;;7.26;100.00
26112;BME280;13829;48.990;8.346;2024-03-25T03:48:55;99776.97;;;7.26;100.00
26112;BME280;13829;48.990;8.346;2024-03-25T03:51:21;99769.22;;;7.42;100.00
26112;BME280;13829;48.990;8.346;2024-03-25T03:53:49;99774.41;;;7.34;100.00
26112;BME280;13829;48.990;8.346;2024-03-25T03:56:15;99783.16;;;7.39;100.00
26112;BME280;13829;48.990;8.346;2024-03-25T03:58:42;99772.75;;;7.48;99.94
26112;BME280;13829;48.990;8.346;2024-03-25T04:01:15;99778.84;;;7.46;99.89
26112;BME280;13829;48.990;8.346;2024-03-25T04:03:42;99786.69;;;7.44;100.00
26112;BME280;13829;48.990;8.346;2024-03-25T04:06:10;99791.91;;;7.44;99.93
26112;BME280;13829;48.990;8.346;2024-03-25T04:08:38;99790.09;;;7.37;99.72
26112;BME280;13829;48.990;8.346;2024-03-25T04:11:06;99788.38;;;7.36;99.94
26112;BME280;13829;48.990;8.346;2024-03-25T04:13:33;99784.91;;;7.43;100.00
26112;BME280;13829;48.990;8.346;2024-03-25T04:16:02;99784.81;;;7.26;100.00
26112;BME280;13829;48.990;8.346;2024-03-25T04:18:30;99782.25;;;7.32;100.00
26112;BME280;13829;48.990;8.346;2024-03-25T04:20:56;99781.34;;;7.32;100.00
26112;BME280;13829;48.990;8.346;2024-03-25T04:23:24;99768.41;;;7.52;100.00
26112;BME280;13829;48.990;8.346;2024-03-25T04:25:50;99770.06;;;7.38;99.44
26112;BME280;13829;48.990;8.346;2024-03-25T04:28:19;99768.41;;;7.50;99.71
26112;BME280;13829;48.990;8.346;2024-03-25T04:30:52;99768.31;;;7.37;98.88
26112;BME280;13829;48.990;8.346;2024-03-25T04:33:19;99776.97;;;7.26;99.79
26112;BME280;13829;48.990;8.346;2024-03-25T04:35:46;99777.81;;;7.25;100.00
26112;BME280;13829;48.990;8.346;2024-03-25T04:38:15;99772.59;;;7.27;100.00
26112;BME280;13829;48.990;8.346;2024-03-25T04:40:42;99773.38;;;7.18;100.00
26112;BME280;13829;48.990;8.346;2024-03-25T04:43:08;99772.53;;;7.19;100.00
26112;BME280;13829;48.990;8.346;2024-03-25T04:45:36;99777.63;;;7.07;100.00
26112;BME280;13829;48.990;8.346;2024-03-25T04:48:03;99771.53;;;7.05;100.00
26112;BME280;13829;48.990;8.346;2024-03-25T04:50:30;99781.16;;;7.06;100.00
26112;BME280;13829;48.990;8.346;2024-03-25T04:52:56;99779.41;;;7.08;100.00
26112;BME280;13829;48.990;8.346;2024-03-25T04:55:23;99775.00;;;7.00;100.00
26112;BME280;13829;48.990;8.346;2024-03-25T04:57:49;99779.25;;;6.92;100.00
26112;BME280;13829;48.990;8.346;2024-03-25T05:00:15;99781.88;;;6.95;100.00
26112;BME280;13829;48.990;8.346;2024-03-25T05:02:43;99790.44;;;6.79;100.00
26112;BME280;13829;48.990;8.346;2024-03-25T05:05:09;99790.41;;;6.73;100.00
26112;BME280;13829;48.990;8.346;2024-03-25T05:07:36;99799.25;;;6.87;100.00
26112;BME280;13829;48.990;8.346;2024-03-25T05:10:02;99791.28;;;6.76;100.00
26112;BME280;13829;48.990;8.346;2024-03-25T05:12:28;99786.97;;;6.77;100.00
26112;BME280;13829;48.990;8.346;2024-03-25T05:14:54;99801.88;;;6.87;100.00
26112;BME280;13829;48.990;8.346;2024-03-25T05:17:20;99797.41;;;6.75;100.00
26112;BME280;13829;48.990;8.346;2024-03-25T05:19:48;99804.50;;;6.90;100.00
26112;BME280;13829;48.990;8.346;2024-03-25T05:22:14;99794.81;;;6.81;100.00
26112;BME280;13829;48.990;8.346;2024-03-25T05:24:40;99799.19;;;6.84;100.00
26112;BME280;13829;48.990;8.346;2024-03-25T05:27:06;99795.63;;;6.73;100.00
26112;BME280;13829;48.990;8.346;2024-03-25T05:29:32;99802.66;;;6.80;100.00
26112;BME280;13829;48.990;8.346;2024-03-25T05:32:00;99800.91;;;6.79;100.00
26112;BME280;13829;48.990;8.346;2024-03-25T05:34:27;99792.13;;;6.74;100.00
26112;BME280;13829;48.990;8.346;2024-03-25T05:36:55;99794.88;;;6.88;100.00
26112;BME280;13829;48.990;8.346;2024-03-25T05:39:21;99795.63;;;6.73;100.00
26112;BME280;13829;48.990;8.346;2024-03-25T05:41:48;99794.94;;;6.91;100.00
26112;BME280;13829;48.990;8.346;2024-03-25T05:44:15;99795.66;;;6.79;100.00
26112;BME280;13829;48.990;8.346;2024-03-25T05:46:41;99793.94;;;6.78;100.00
26112;BME280;13829;48.990;8.346;2024-03-25T05:49:07;99792.25;;;6.83;100.00
26112;BME280;13829;48.990;8.346;2024-03-25T05:51:34;99789.63;;;6.83;100.00
26112;BME280;13829;48.990;8.346;2024-03-25T05:54:02;99786.19;;;6.90;100.00
26112;BME280;13829;48.990;8.346;2024-03-25T05:56:28;99781.75;;;6.80;100.00
26112;BME280;13829;48.990;8.346;2024-03-25T05:58:54;99788.75;;;6.84;100.00
26112;BME280;13829;48.990;8.346;2024-03-25T06:01:20;99785.19;;;6.76;100.00
26112;BME280;13829;48.990;8.346;2024-03-25T06:03:46;99787.88;;;6.82;100.00
26112;BME280;13829;48.990;8.346;2024-03-25T06:06:12;99786.03;;;6.72;100.00
26112;BME280;13829;48.990;8.346;2024-03-25T06:08:38;99793.81;;;6.68;100.00
26112;BME280;13829;48.990;8.346;2024-03-25T06:11:06;99793.03;;;6.74;100.00
26112;BME280;13829;48.990;8.346;2024-03-25T06:13:32;99797.56;;;6.92;100.00
26112;BME280;13829;48.990;8.346;2024-03-25T06:15:58;99799.31;;;6.93;100.00
26112;BME280;13829;48.990;8.346;2024-03-25T06:18:24;99795.03;;;7.00;100.00
26112;BME280;13829;48.990;8.346;2024-03-25T06:20:50;99796.84;;;7.12;100.00
26112;BME280;13829;48.990;8.346;2024-03-25T06:23:28;99797.75;;;7.11;100.00
26112;BME280;13829;48.990;8.346;2024-03-25T06:25:56;99794.34;;;7.21;100.00
26112;BME280;13829;48.990;8.346;2024-03-25T06:28:23;99796.13;;;7.25;100.00
26112;BME280;13829;48.990;8.346;2024-03-25T06:30:51;99781.44;;;7.41;100.00
26112;BME280;13829;48.990;8.346;2024-03-25T06:33:36;99794.53;;;7.43;100.00
26112;BME280;13829;48.990;8.346;2024-03-25T06:36:21;99788.53;;;7.59;100.00
26112;BME280;13829;48.990;8.346;2024-03-25T06:38:48;99789.41;;;7.55;100.00
26112;BME280;13829;48.990;8.346;2024-03-25T06:41:14;99791.13;;;7.53;100.00
26112;BME280;13829;48.990;8.346;2024-03-25T06:43:42;99794.59;;;7.54;100.00
26112;BME280;13829;48.990;8.346;2024-03-25T06:46:08;99798.16;;;7.63;100.00
26112;BME280;13829;48.990;8.346;2024-03-25T06:48:34;99793.78;;;7.62;100.00
26112;BME280;13829;48.990;8.346;2024-03-25T06:51:01;99800.09;;;7.89;100.00
26112;BME280;13829;48.990;8.346;2024-03-25T06:53:27;99796.16;;;8.95;97.32
26112;BME280;13829;48.990;8.346;2024-03-25T06:55:55;99793.22;;;10.77;85.64
26112;BME280;13829;48.990;8.346;2024-03-25T06:58:23;99791.78;;;12.42;75.91
26112;BME280;13829;48.990;8.346;2024-03-25T07:00:51;99786.63;;;13.56;66.30
26112;BME280;13829;48.990;8.346;2024-03-25T07:03:19;99781.44;;;14.43;60.09
26112;BME280;13829;48.990;8.346;2024-03-25T07:05:46;99777.69;;;15.32;56.29
26112;BME280;13829;48.990;8.346;2024-03-25T07:08:12;99776.84;;;15.66;53.27
26112;BME280;13829;48.990;8.346;2024-03-25T07:10:38;99772.31;;;16.04;51.34
26112;BME280;13829;48.990;8.346;2024-03-25T07:13:04;99768.13;;;16.87;49.99
26112;BME280;13829;48.990;8.346;2024-03-25T07:15:31;99764.03;;;17.06;48.53
26112;BME280;13829;48.990;8.346;2024-03-25T07:17:58;99752.47;;;17.86;47.25
26112;BME280;13829;48.990;8.346;2024-03-25T07:20:24;99755.78;;;18.18;45.86
26112;BME280;13829;48.990;8.346;2024-03-25T07:22:50;99748.66;;;18.42;45.27
26112;BME280;13829;48.990;8.346;2024-03-25T07:25:16;99746.06;;;18.87;42.11
26112;BME280;13829;48.990;8.346;2024-03-25T07:27:42;99748.78;;;18.39;44.16
26112;BME280;13829;48.990;8.346;2024-03-25T07:30:09;99752.25;;;18.41;44.18
26112;BME280;13829;48.990;8.346;2024-03-25T07:32:35;99740.38;;;18.50;43.29
26112;BME280;13829;48.990;8.346;2024-03-25T07:35:02;99751.09;;;18.25;43.13
26112;BME280;13829;48.990;8.346;2024-03-25T07:37:29;99741.25;;;19.19;42.13
26112;BME280;13829;48.990;8.346;2024-03-25T07:39:55;99738.03;;;19.74;40.81
26112;BME280;13829;48.990;8.346;2024-03-25T07:42:21;99743.88;;;20.43;38.80
26112;BME280;13829;48.990;8.346;2024-03-25T07:44:47;99732.28;;;20.82;38.13
26112;BME280;13829;48.990;8.346;2024-03-25T07:47:13;99736.81;;;20.99;37.05
26112;BME280;13829;48.990;8.346;2024-03-25T07:49:39;99738.19;;;20.69;39.76
26112;BME280;13829;48.990;8.346;2024-03-25T07:52:06;99737.63;;;20.44;39.21
26112;BME280;13829;48.990;8.346;2024-03-25T07:54:32;99738.47;;;19.85;39.39
26112;BME280;13829;48.990;8.346;2024-03-25T07:56:59;99740.56;;;19.56;39.90
26112;BME280;13829;48.990;8.346;2024-03-25T07:59:25;99741.06;;;19.44;41.33
26112;BME280;13829;48.990;8.346;2024-03-25T08:01:51;99744.50;;;19.48;39.99
26112;BME280;13829;48.990;8.346;2024-03-25T08:04:17;99748.28;;;18.99;41.06
26112;BME280;13829;48.990;8.346;2024-03-25T08:06:43;99749.75;;;18.13;43.56
26112;BME280;13829;48.990;8.346;2024-03-25T08:09:10;99750.66;;;17.61;44.88
26112;BME280;13829;48.990;8.346;2024-03-25T08:11:36;99753.50;;;17.57;45.07
26112;BME280;13829;48.990;8.346;2024-03-25T08:14:02;99742.63;;;17.88;45.23
26112;BME280;13829;48.990;8.346;2024-03-25T08:16:28;99746.72;;;17.47;46.19
26112;BME280;13829;48.990;8.346;2024-03-25T08:18:54;99735.88;;;16.71;48.38
26112;BME280;13829;48.990;8.346;2024-03-25T08:21:20;99748.50;;;16.33;47.53
26112;BME280;13829;48.990;8.346;2024-03-25T08:23:46;99745.53;;;16.13;48.66
26112;BME280;13829;48.990;8.346;2024-03-25T08:26:14;99737.03;;;15.68;50.53
26112;BME280;13829;48.990;8.346;2024-03-25T08:28:40;99742.72;;;14.80;50.85
26112;BME280;13829;48.990;8.346;2024-03-25T08:31:06;99740.22;;;14.74;52.29
26112;BME280;13829;48.990;8.346;2024-03-25T08:33:32;99743.41;;;14.47;55.70
26112;BME280;13829;48.990;8.346;2024-03-25T08:35:58;99740.63;;;14.54;55.16
26112;BME280;13829;48.990;8.346;2024-03-25T08:38:24;99730.63;;;14.68;56.27
26112;BME280;13829;48.990;8.346;2024-03-25T08:40:51;99739.38;;;14.72;54.30
26112;BME280;13829;48.990;8.346;2024-03-25T08:43:18;99738.31;;;14.80;54.14
26112;BME280;13829;48.990;8.346;2024-03-25T08:45:45;99731.47;;;14.70;53.39
26112;BME280;13829;48.990;8.346;2024-03-25T08:48:11;99733.59;;;14.52;56.77
26112;BME280;13829;48.990;8.346;2024-03-25T08:50:37;99735.38;;;14.11;56.41
26112;BME280;13829;48.990;8.346;2024-03-25T08:53:04;99729.66;;;13.88;56.02
26112;BME280;13829;48.990;8.346;2024-03-25T08:55:30;99729.38;;;13.54;57.27
26112;BME280;13829;48.990;8.346;2024-03-25T08:57:56;99736.66;;;13.40;58.68
26112;BME280;13829;48.990;8.346;2024-03-25T09:00:24;99722.59;;;13.40;59.13
26112;BME280;13829;48.990;8.346;2024-03-25T09:02:50;99737.59;;;13.36;64.24
26112;BME280;13829;48.990;8.346;2024-03-25T09:05:16;99725.06;;;13.50;60.22
26112;BME280;13829;48.990;8.346;2024-03-25T09:07:43;99721.13;;;13.21;59.96
26112;BME280;13829;48.990;8.346;2024-03-25T09:10:10;99722.63;;;12.83;60.92
26112;BME280;13829;48.990;8.346;2024-03-25T09:12:54;99718.00;;;12.37;62.99
26112;BME280;13829;48.990;8.346;2024-03-25T09:15:20;99706.38;;;12.52;65.09
26112;BME280;13829;48.990;8.346;2024-03-25T09:17:47;99697.22;;;12.76;66.11
26112;BME280;13829;48.990;8.346;2024-03-25T09:20:14;99683.56;;;13.04;62.00
26112;BME280;13829;48.990;8.346;2024-03-25T09:22:42;99687.75;;;13.17;63.66
26112;BME280;13829;48.990;8.346;2024-03-25T09:25:08;99673.34;;;13.35;60.38
26112;BME280;13829;48.990;8.346;2024-03-25T09:27:35;99675.69;;;13.52;59.83
26112;BME280;13829;48.990;8.346;2024-03-25T09:30:01;99678.22;;;13.59;60.18
26112;BME280;13829;48.990;8.346;2024-03-25T09:32:27;99663.56;;;13.42;54.75
26112;BME280;13829;48.990;8.346;2024-03-25T09:34:54;99665.56;;;13.28;54.13
26112;BME280;13829;48.990;8.346;2024-03-25T09:37:20;99662.28;;;13.13;54.81
26112;BME280;13829;48.990;8.346;2024-03-25T09:39:46;99661.06;;;12.81;53.12
26112;BME280;13829;48.990;8.346;2024-03-25T09:42:15;99664.78;;;12.69;51.93
26112;BME280;13829;48.990;8.346;2024-03-25T09:44:44;99658.56;;;12.73;53.74
26112;BME280;13829;48.990;8.346;2024-03-25T09:47:11;99658.22;;;12.95;57.88
26112;BME280;13829;48.990;8.346;2024-03-25T09:49:38;99648.16;;;13.16;53.26
26112;BME280;13829;48.990;8.346;2024-03-25T09:52:07;99637.63;;;13.14;56.18
26112;BME280;13829;48.990;8.346;2024-03-25T09:54:34;99643.81;;;13.13;55.39
26112;BME280;13829;48.990;8.346;2024-03-25T09:57:01;99643.84;;;13.12;55.08
26112;BME280;13829;48.990;8.346;2024-03-25T09:59:27;99635.97;;;12.57;52.60
26112;BME280;13829;48.990;8.346;2024-03-25T10:01:54;99633.28;;;12.59;53.51
26112;BME280;13829;48.990;8.346;2024-03-25T10:04:20;99629.09;;;12.47;52.90
26112;BME280;13829;48.990;8.346;2024-03-25T10:06:46;99630.03;;;12.41;51.15
26112;BME280;13829;48.990;8.346;2024-03-25T10:09:19;99622.78;;;12.55;51.07
26112;BME280;13829;48.990;8.346;2024-03-25T10:11:48;99623.81;;;12.47;49.30
26112;BME280;13829;48.990;8.346;2024-03-25T10:14:15;99612.97;;;12.06;53.38
26112;BME280;13829;48.990;8.346;2024-03-25T10:16:42;99614.13;;;11.83;53.23
26112;BME280;13829;48.990;8.346;2024-03-25T10:19:08;99610.16;;;11.48;50.98
26112;BME280;13829;48.990;8.346;2024-03-25T10:21:34;99609.13;;;11.62;54.92
26112;BME280;13829;48.990;8.346;2024-03-25T10:24:00;99611.69;;;11.66;54.85
26112;BME280;13829;48.990;8.346;2024-03-25T10:26:29;99604.28;;;12.01;51.74
26112;BME280;13829;48.990;8.346;2024-03-25T10:29:01;99599.34;;;11.73;51.68
26112;BME280;13829;48.990;8.346;2024-03-25T10:31:27;99593.00;;;11.86;54.35
26112;BME280;13829;48.990;8.346;2024-03-25T10:33:53;99584.19;;;11.89;55.60
26112;BME280;13829;48.990;8.346;2024-03-25T10:36:22;99585.38;;;11.65;56.15
26112;BME280;13829;48.990;8.346;2024-03-25T10:38:49;99576.66;;;11.59;55.31
26112;BME280;13829;48.990;8.346;2024-03-25T10:41:21;99575.69;;;11.65;52.68
26112;BME280;13829;48.990;8.346;2024-03-25T10:43:49;99573.81;;;11.77;53.91
26112;BME280;13829;48.990;8.346;2024-03-25T10:46:20;99571.31;;;11.66;50.29
26112;BME280;13829;48.990;8.346;2024-03-25T10:48:54;99558.81;;;11.83;49.21
26112;BME280;13829;48.990;8.346;2024-03-25T10:51:26;99553.81;;;11.63;48.43
26112;BME280;13829;48.990;8.346;2024-03-25T10:53:54;99555.66;;;11.53;48.45
26112;BME280;13829;48.990;8.346;2024-03-25T10:56:21;99551.22;;;11.58;49.23
26112;BME280;13829;48.990;8.346;2024-03-25T10:58:50;99538.81;;;11.65;52.07
26112;BME280;13829;48.990;8.346;2024-03-25T11:01:18;99530.13;;;11.62;48.84
26112;BME280;13829;48.990;8.346;2024-03-25T11:03:45;99530.66;;;11.85;47.83
26112;BME280;13829;48.990;8.346;2024-03-25T11:06:12;99521.75;;;11.96;46.03
26112;BME280;13829;48.990;8.346;2024-03-25T11:08:39;99520.03;;;11.91;45.20
26112;BME280;13829;48.990;8.346;2024-03-25T11:11:05;99520.19;;;11.79;46.10
26112;BME280;13829;48.990;8.346;2024-03-25T11:13:32;99514.78;;;11.90;46.00
26112;BME280;13829;48.990;8.346;2024-03-25T11:15:59;99517.72;;;11.68;45.80
26112;BME280;13829;48.990;8.346;2024-03-25T11:18:26;99499.84;;;11.90;47.63
26112;BME280;13829;48.990;8.346;2024-03-25T11:21:03;99506.38;;;12.26;46.87
26112;BME280;13829;48.990;8.346;2024-03-25T11:23:37;99494.94;;;12.27;46.76
26112;BME280;13829;48.990;8.346;2024-03-25T11:26:04;99494.88;;;12.30;48.13
26112;BME280;13829;48.990;8.346;2024-03-25T11:28:30;99481.81;;;12.22;45.33
26112;BME280;13829;48.990;8.346;2024-03-25T11:30:56;99487.41;;;12.02;45.73
26112;BME280;13829;48.990;8.346;2024-03-25T11:33:24;99484.56;;;12.14;49.66
26112;BME280;13829;48.990;8.346;2024-03-25T11:35:50;99471.47;;;12.10;47.09
26112;BME280;13829;48.990;8.346;2024-03-25T11:38:16;99466.31;;;12.03;43.91
26112;BME280;13829;48.990;8.346;2024-03-25T11:40:44;99467.25;;;12.01;43.72
26112;BME280;13829;48.990;8.346;2024-03-25T11:43:18;99465.53;;;11.95;44.34
26112;BME280;13829;48.990;8.346;2024-03-25T11:45:47;99451.94;;;12.23;44.38
26112;BME280;13829;48.990;8.346;2024-03-25T11:48:15;99452.41;;;12.47;43.27
26112;BME280;13829;48.990;8.346;2024-03-25T11:50:45;99445.13;;;12.60;46.80
26112;BME280;13829;48.990;8.346;2024-03-25T11:53:13;99437.75;;;12.77;45.27
26112;BME280;13829;48.990;8.346;2024-03-25T11:55:40;99433.84;;;12.97;43.30
26112;BME280;13829;48.990;8.346;2024-03-25T11:58:07;99438.13;;;13.02;42.83
26112;BME280;13829;48.990;8.346;2024-03-25T12:00:33;99432.78;;;12.62;42.27
26112;BME280;13829;48.990;8.346;2024-03-25T12:03:00;99419.34;;;12.74;44.36
26112;BME280;13829;48.990;8.346;2024-03-25T12:05:27;99417.22;;;12.46;41.61
26112;BME280;13829;48.990;8.346;2024-03-25T12:07:54;99411.19;;;12.41;44.73
26112;BME280;13829;48.990;8.346;2024-03-25T12:10:20;99398.94;;;12.37;45.77
26112;BME280;13829;48.990;8.346;2024-03-25T12:13:06;99402.91;;;12.13;42.62
26112;BME280;13829;48.990;8.346;2024-03-25T12:15:32;99400.25;;;12.14;42.81
26112;BME280;13829;48.990;8.346;2024-03-25T12:17:58;99391.78;;;11.94;42.76
26112;BME280;13829;48.990;8.346;2024-03-25T12:20:25;99374.16;;;12.47;43.15
26112;BME280;13829;48.990;8.346;2024-03-25T12:22:51;99375.25;;;12.79;41.91
26112;BME280;13829;48.990;8.346;2024-03-25T12:25:19;99369.97;;;12.79;43.11
26112;BME280;13829;48.990;8.346;2024-03-25T12:27:46;99371.81;;;12.77;42.70
26112;BME280;13829;48.990;8.346;2024-03-25T12:30:13;99360.72;;;12.60;43.30
26112;BME280;13829;48.990;8.346;2024-03-25T12:32:41;99359.22;;;12.48;42.53
26112;BME280;13829;48.990;8.346;2024-03-25T12:35:09;99344.78;;;12.66;43.10
26112;BME280;13829;48.990;8.346;2024-03-25T12:37:36;99338.31;;;12.81;44.65
26112;BME280;13829;48.990;8.346;2024-03-25T12:40:05;99331.50;;;12.69;41.80
26112;BME280;13829;48.990;8.346;2024-03-25T12:42:32;99337.56;;;12.74;42.30
26112;BME280;13829;48.990;8.346;2024-03-25T12:44:58;99323.84;;;12.99;42.64
26112;BME280;13829;48.990;8.346;2024-03-25T12:47:24;99331.50;;;12.69;41.75
26112;BME280;13829;48.990;8.346;2024-03-25T12:49:50;99326.63;;;12.49;41.45
26112;BME280;13829;48.990;8.346;2024-03-25T12:52:17;99327.94;;;12.71;42.40
26112;BME280;13829;48.990;8.346;2024-03-25T12:54:43;99318.78;;;12.47;40.95
26112;BME280;13829;48.990;8.346;2024-03-25T12:57:09;99305.75;;;12.80;40.76
26112;BME280;13829;48.990;8.346;2024-03-25T12:59:36;99295.09;;;12.86;41.81